Terminal Aerodrome Forecast
Issued by NWS Billings, MT

Home | Current Version | Previous Version | Text Only | Print | Product List | Glossary Off
Versions: 1 2 3 4 5 6 7 8 9 10 11 12 13 14 15 16 17 18 19 20 21 22 23 24 25 26 27 28 29 30 31 32 33 34 35 36 37 38 39 40 41 42 43

000
FTUS45 KBYZ 251137
TAFMLS
TAF
KMLS 251137Z 2512/2612 20004KT P6SM VCSH OVC050
     FM251500 27016KT 4SM -SHSN BKN030
      TEMPO 2515/2518 2SM -SHSN BKN020
     FM251800 33019KT 5SM -SN BKN025 OVC040
     FM260000 33014KT P6SM VCSH BKN020=

USA.gov is the U.S. government's official web portal to all federal, state and local government web resources and services.